Time;durP1;ratioP1;P1;durP2;ratioP2;P2;SDS_P1;SDS_P2;PMS_P1;PMS_P2;Temp;Humidity;BMP_temperature;BMP_pressure;BME280_temperature;BME280_humidity;BME280_pressure;Samples;Min_cycle;Max_cycle;Signal;HPM_P1;HPM_P2
2021/07/25 00:00:43;;;;;;;39.92;30.35;;;19.40;99.90;;;;;;5070327;28;20048;-81
2021/07/25 00:03:10;;;;;;;44.05;29.45;;;19.30;99.90;;;;;;5068605;28;20083;-82
2021/07/25 00:05:38;;;;;;;38.90;29.38;;;19.40;99.90;;;;;;5068600;28;20052;-82
2021/07/25 00:08:05;;;;;;;39.67;30.67;;;19.40;99.90;;;;;;5070931;28;20074;-84
2021/07/25 00:10:32;;;;;;;44.58;30.85;;;19.40;99.90;;;;;;5071693;28;20087;-84
2021/07/25 00:12:59;;;;;;;43.40;28.60;;;19.40;99.90;;;;;;5070109;28;20528;-83
2021/07/25 00:15:25;;;;;;;44.85;28.25;;;19.50;99.90;;;;;;5070754;28;20045;-84
2021/07/25 00:17:56;;;;;;;36.28;27.80;;;19.50;99.90;;;;;;5070811;28;20048;-84
2021/07/25 00:20:23;;;;;;;42.97;26.80;;;19.50;99.90;;;;;;5070428;28;20053;-83
2021/07/25 00:22:50;;;;;;;40.78;28.15;;;19.50;99.90;;;;;;5068559;28;20073;-82
2021/07/25 00:25:19;;;;;;;35.40;27.17;;;19.50;99.90;;;;;;5068756;28;20045;-81
2021/07/25 00:27:52;;;;;;;38.13;26.25;;;19.60;99.90;;;;;;5068184;28;20045;-83
2021/07/25 00:30:22;;;;;;;38.72;26.10;;;19.60;99.90;;;;;;5067887;28;20071;-83
2021/07/25 00:32:50;;;;;;;39.95;27.00;;;19.60;99.90;;;;;;5067815;28;20501;-83
2021/07/25 00:35:18;;;;;;;43.35;26.70;;;19.60;99.90;;;;;;5068212;28;20108;-83
2021/07/25 00:37:47;;;;;;;41.20;26.35;;;19.50;99.90;;;;;;5067564;28;20083;-82
2021/07/25 00:40:22;;;;;;;45.85;26.35;;;19.40;99.90;;;;;;5066953;28;20057;-85
2021/07/25 00:42:49;;;;;;;45.42;26.55;;;19.40;99.90;;;;;;5068056;28;20543;-83
2021/07/25 00:45:16;;;;;;;38.13;27.58;;;19.50;99.90;;;;;;5068164;28;20049;-85
2021/07/25 00:47:48;;;;;;;37.20;26.83;;;19.50;99.90;;;;;;5068460;28;20080;-84
2021/07/25 00:53:48;;;;;;;40.63;26.33;;;19.70;99.90;;;;;;5068786;28;20064;-83
2021/07/25 00:56:38;;;;;;;41.15;24.70;;;19.60;99.90;;;;;;5068295;28;20045;-84
2021/07/25 00:59:30;;;;;;;42.45;25.27;;;19.50;99.90;;;;;;5006478;28;20088;-84
2021/07/25 01:06:01;;;;;;;45.78;26.98;;;19.50;99.90;;;;;;5036424;28;20059;-83
2021/07/25 01:12:15;;;;;;;44.63;23.83;;;19.40;99.90;;;;;;4929023;29;20055;-83
2021/07/25 01:15:07;;;;;;;41.10;24.98;;;19.40;99.90;;;;;;5027879;28;20081;-84
2021/07/25 01:17:48;;;;;;;44.72;24.85;;;19.40;99.90;;;;;;5067201;28;20048;-85
2021/07/25 01:20:16;;;;;;;37.13;24.83;;;19.40;99.90;;;;;;5090766;22;20044;-84
2021/07/25 01:22:46;;;;;;;37.13;25.10;;;19.30;99.90;;;;;;5095305;28;20076;-83
2021/07/25 01:25:15;;;;;;;34.13;23.80;;;19.30;99.90;;;;;;5078524;28;20104;-83
2021/07/25 01:27:46;;;;;;;36.05;24.60;;;19.30;99.90;;;;;;5078556;28;20080;-83
2021/07/25 01:30:17;;;;;;;40.05;25.42;;;19.30;99.90;;;;;;5071132;28;20088;-84
2021/07/25 01:32:45;;;;;;;44.78;24.67;;;19.20;99.90;;;;;;5059714;28;20465;-81
2021/07/25 01:35:14;;;;;;;41.05;23.98;;;19.20;99.90;;;;;;5060375;28;20448;-81
2021/07/25 01:37:42;;;;;;;42.10;23.70;;;19.20;99.90;;;;;;5061698;28;20121;-84
2021/07/25 01:40:14;;;;;;;39.08;22.70;;;19.20;99.90;;;;;;5064218;28;20060;-82
2021/07/25 01:42:41;;;;;;;36.58;23.08;;;19.20;99.90;;;;;;5063882;28;20079;-82
2021/07/25 01:45:10;;;;;;;31.75;22.17;;;19.20;99.90;;;;;;5063448;28;20106;-82
2021/07/25 01:47:37;;;;;;;31.58;22.83;;;19.20;99.90;;;;;;5062589;28;20088;-81
2021/07/25 01:50:08;;;;;;;33.15;23.08;;;19.20;99.90;;;;;;5062851;28;20128;-82
2021/07/25 01:52:35;;;;;;;32.33;22.63;;;19.20;99.90;;;;;;5057280;28;20131;-82
2021/07/25 01:55:04;;;;;;;28.40;21.95;;;19.20;99.90;;;;;;5055467;28;20135;-84
2021/07/25 01:57:31;;;;;;;33.90;22.75;;;19.30;99.90;;;;;;5054525;28;20099;-81
2021/07/25 01:59:58;;;;;;;26.38;21.27;;;19.30;99.90;;;;;;5063530;28;20131;-81
2021/07/25 02:02:25;;;;;;;29.33;21.63;;;19.30;99.90;;;;;;5065872;28;20117;-82
2021/07/25 02:04:52;;;;;;;31.38;20.98;;;19.30;99.90;;;;;;5065486;28;20128;-82
2021/07/25 02:07:19;;;;;;;29.23;21.88;;;19.30;99.90;;;;;;5065406;28;20081;-82
2021/07/25 02:09:45;;;;;;;29.17;21.30;;;19.30;99.90;;;;;;5066399;28;20088;-82
2021/07/25 02:12:14;;;;;;;29.08;21.52;;;19.30;99.90;;;;;;5067230;28;20056;-83
2021/07/25 02:14:41;;;;;;;32.22;22.33;;;19.30;99.90;;;;;;5066566;28;20083;-82
2021/07/25 02:17:09;;;;;;;29.90;20.88;;;19.40;99.90;;;;;;5069856;28;20084;-83
2021/07/25 02:19:37;;;;;;;36.40;22.00;;;19.40;99.90;;;;;;5068914;28;20087;-83
2021/07/25 02:22:05;;;;;;;30.40;22.13;;;19.40;99.90;;;;;;5067910;28;20053;-83
2021/07/25 02:24:32;;;;;;;26.92;20.20;;;19.40;99.90;;;;;;5066924;28;20117;-81
2021/07/25 02:26:59;;;;;;;25.08;21.45;;;19.50;99.90;;;;;;5061902;28;20141;-82
2021/07/25 02:29:27;;;;;;;29.63;22.33;;;19.40;99.90;;;;;;5062410;28;20049;-82
2021/07/25 02:31:54;;;;;;;30.83;22.48;;;19.40;99.90;;;;;;5063884;28;20180;-81
2021/07/25 02:34:21;;;;;;;30.35;22.90;;;19.40;99.90;;;;;;5063898;28;20121;-81
2021/07/25 02:36:48;;;;;;;31.65;22.33;;;19.40;99.90;;;;;;5063878;28;20091;-81
2021/07/25 02:39:15;;;;;;;28.58;21.92;;;19.30;99.90;;;;;;5064047;28;20048;-81
2021/07/25 02:41:42;;;;;;;27.02;21.45;;;19.20;99.90;;;;;;5064161;28;20135;-81
2021/07/25 02:44:09;;;;;;;27.92;21.50;;;19.20;99.90;;;;;;5064270;28;20108;-81
2021/07/25 02:46:37;;;;;;;26.90;20.33;;;19.10;99.90;;;;;;5063774;28;20332;-81
2021/07/25 02:49:04;;;;;;;27.10;20.10;;;19.20;99.90;;;;;;5062664;28;20140;-82
2021/07/25 02:51:31;;;;;;;27.35;20.80;;;19.10;99.90;;;;;;5061942;28;20064;-82
2021/07/25 02:53:58;;;;;;;29.50;20.15;;;19.10;99.90;;;;;;5058382;28;20053;-82
2021/07/25 02:56:25;;;;;;;26.42;19.08;;;19.00;99.90;;;;;;5056466;28;20427;-81
2021/07/25 02:58:52;;;;;;;26.45;19.20;;;19.00;99.90;;;;;;5057911;28;20048;-81
2021/07/25 03:01:19;;;;;;;28.00;18.25;;;19.00;99.90;;;;;;5057728;28;20152;-82
2021/07/25 03:03:47;;;;;;;23.70;17.48;;;19.00;99.90;;;;;;5057525;28;20573;-81
2021/07/25 03:06:14;;;;;;;22.90;18.25;;;19.00;99.90;;;;;;5064961;28;20116;-80
2021/07/25 03:08:41;;;;;;;27.45;18.63;;;18.90;99.90;;;;;;5061314;28;20084;-82
2021/07/25 03:11:09;;;;;;;25.67;17.55;;;18.90;99.90;;;;;;5059821;28;20085;-81
2021/07/25 03:13:36;;;;;;;20.75;17.55;;;18.90;99.90;;;;;;5058233;28;20049;-81
2021/07/25 03:16:03;;;;;;;25.15;17.73;;;18.90;99.90;;;;;;5058068;28;20063;-81
2021/07/25 03:18:30;;;;;;;25.10;17.60;;;18.90;99.90;;;;;;5058578;28;20109;-80
2021/07/25 03:20:59;;;;;;;21.85;17.77;;;18.90;99.90;;;;;;5058539;28;20133;-80
2021/07/25 03:23:26;;;;;;;21.80;18.13;;;18.80;99.90;;;;;;5058798;28;20140;-80
2021/07/25 03:25:53;;;;;;;23.83;17.67;;;18.80;99.90;;;;;;5058742;28;20471;-80
2021/07/25 03:28:20;;;;;;;23.92;17.98;;;18.80;99.90;;;;;;5063293;28;20049;-81
2021/07/25 03:30:47;;;;;;;21.95;17.42;;;18.70;99.90;;;;;;5061098;28;20132;-81
2021/07/25 03:33:15;;;;;;;23.50;18.73;;;18.60;99.90;;;;;;5060238;28;20161;-81
2021/07/25 03:35:42;;;;;;;25.83;18.38;;;18.60;99.90;;;;;;5061280;28;20077;-81
2021/07/25 03:38:11;;;;;;;25.52;18.60;;;18.60;99.90;;;;;;5061258;28;20049;-81
2021/07/25 03:40:41;;;;;;;22.98;18.58;;;18.50;99.90;;;;;;5059390;28;20049;-82
2021/07/25 03:43:08;;;;;;;23.70;19.20;;;18.40;99.90;;;;;;5057894;28;20056;-82
2021/07/25 03:45:36;;;;;;;23.67;18.73;;;18.30;99.90;;;;;;5058711;28;20080;-82
2021/07/25 03:48:03;;;;;;;20.48;17.17;;;18.30;99.90;;;;;;5058242;28;20053;-81
2021/07/25 03:50:30;;;;;;;24.45;18.42;;;18.20;99.90;;;;;;5057881;28;20128;-81
2021/07/25 03:52:56;;;;;;;25.85;17.30;;;18.20;99.90;;;;;;5058880;28;20049;-81
2021/07/25 03:55:25;;;;;;;23.23;17.63;;;18.20;99.90;;;;;;5059027;28;20072;-81
2021/07/25 03:57:52;;;;;;;21.30;17.52;;;18.10;99.90;;;;;;5058343;28;20084;-82
2021/07/25 04:00:19;;;;;;;24.48;18.15;;;18.00;99.90;;;;;;5060776;28;20057;-80
2021/07/25 04:02:46;;;;;;;24.17;17.08;;;18.00;99.90;;;;;;5061489;28;20048;-80
2021/07/25 04:05:13;;;;;;;23.67;16.20;;;18.00;99.90;;;;;;5061486;28;20124;-80
2021/07/25 04:07:40;;;;;;;21.27;16.17;;;18.00;99.90;;;;;;5061694;28;20045;-80
2021/07/25 04:10:08;;;;;;;18.60;14.38;;;18.00;99.90;;;;;;5062039;28;20469;-80
2021/07/25 04:12:37;;;;;;;19.48;15.00;;;17.90;99.90;;;;;;5064126;28;20087;-80
2021/07/25 04:15:04;;;;;;;18.30;14.63;;;17.90;99.90;;;;;;5070255;28;20060;-81
2021/07/25 04:17:34;;;;;;;17.40;13.50;;;18.00;99.90;;;;;;5068391;28;20075;-81
2021/07/25 04:20:00;;;;;;;14.90;13.02;;;18.00;99.90;;;;;;5069768;28;20052;-80
2021/07/25 04:22:32;;;;;;;19.98;13.07;;;18.10;99.90;;;;;;5073019;28;20053;-81
2021/07/25 04:24:59;;;;;;;16.10;12.23;;;18.30;99.90;;;;;;5073787;28;20037;-81
2021/07/25 04:27:26;;;;;;;14.75;12.40;;;18.40;99.90;;;;;;5073990;28;20298;-82
2021/07/25 04:29:55;;;;;;;13.90;12.13;;;18.40;99.90;;;;;;5074075;28;20048;-83
2021/07/25 04:32:23;;;;;;;17.08;12.30;;;18.50;99.90;;;;;;5074048;28;20072;-82
2021/07/25 04:34:51;;;;;;;15.10;12.15;;;18.60;99.90;;;;;;5068644;28;20084;-80
2021/07/25 04:37:23;;;;;;;20.33;12.63;;;18.70;99.90;;;;;;5070345;28;20088;-80
2021/07/25 04:39:51;;;;;;;16.15;12.30;;;18.70;99.90;;;;;;5068911;28;20049;-80
2021/07/25 04:42:21;;;;;;;15.02;12.18;;;18.80;99.90;;;;;;5069942;28;20056;-81
2021/07/25 04:44:55;;;;;;;19.73;12.60;;;18.80;99.90;;;;;;5072261;28;20077;-80
2021/07/25 04:47:33;;;;;;;18.80;13.38;;;18.70;99.90;;;;;;5071767;28;20048;-81
2021/07/25 04:50:05;;;;;;;14.63;12.50;;;18.50;99.90;;;;;;5071416;28;20089;-80
2021/07/25 04:52:38;;;;;;;18.23;12.50;;;18.50;99.90;;;;;;5071184;28;20068;-81
2021/07/25 04:55:07;;;;;;;16.10;12.07;;;18.50;99.90;;;;;;5070051;28;20049;-80
2021/07/25 04:57:39;;;;;;;15.10;13.00;;;18.50;99.90;;;;;;5072345;28;20048;-80
2021/07/25 05:00:10;;;;;;;15.27;11.98;;;18.50;99.90;;;;;;5069751;28;20072;-80
2021/07/25 05:02:39;;;;;;;14.88;10.82;;;18.70;99.90;;;;;;5051976;28;20084;-79
2021/07/25 05:05:08;;;;;;;13.77;11.05;;;18.80;99.90;;;;;;5066013;28;20072;-80
2021/07/25 05:07:38;;;;;;;18.02;11.63;;;19.00;99.90;;;;;;5068571;28;20084;-80
2021/07/25 05:10:06;;;;;;;17.95;11.48;;;19.00;99.90;;;;;;5070614;28;20079;-81
2021/07/25 05:12:38;;;;;;;14.75;11.32;;;19.00;99.90;;;;;;5066741;28;20075;-79
2021/07/25 05:15:11;;;;;;;13.88;11.35;;;19.00;99.90;;;;;;5071058;28;20491;-84
2021/07/25 05:17:43;;;;;;;18.50;11.02;;;19.00;99.90;;;;;;5074525;28;20087;-81
2021/07/25 05:20:15;;;;;;;17.70;11.63;;;18.90;99.90;;;;;;5075515;28;20045;-80
2021/07/25 05:22:47;;;;;;;16.73;11.03;;;19.00;99.90;;;;;;5071324;28;20135;-80
2021/07/25 05:25:17;;;;;;;24.02;10.80;;;19.00;99.90;;;;;;5072446;28;20285;-81
2021/07/25 05:27:46;;;;;;;15.25;10.25;;;19.30;99.90;;;;;;5070599;28;20059;-83
2021/07/25 05:30:16;;;;;;;15.18;9.70;;;20.00;99.90;;;;;;5091273;28;20048;-80
2021/07/25 05:32:43;;;;;;;14.75;9.68;;;20.80;99.90;;;;;;5080681;28;20481;-82
2021/07/25 05:35:11;;;;;;;13.50;10.02;;;21.30;99.90;;;;;;5064177;28;20056;-82
2021/07/25 05:37:38;;;;;;;13.27;9.40;;;21.70;99.90;;;;;;5060815;28;20503;-80
2021/07/25 05:40:06;;;;;;;14.50;9.75;;;22.10;99.90;;;;;;5063315;28;20077;-80
2021/07/25 05:42:33;;;;;;;14.77;9.90;;;22.30;99.90;;;;;;5064312;28;20084;-80
2021/07/25 05:45:00;;;;;;;13.95;10.40;;;22.60;99.90;;;;;;5066399;28;20127;-80
2021/07/25 05:47:29;;;;;;;11.70;9.50;;;23.00;99.90;;;;;;5068288;28;20553;-80
2021/07/25 05:49:55;;;;;;;12.43;9.98;;;23.20;99.90;;;;;;5067738;28;20083;-80
2021/07/25 05:52:22;;;;;;;11.55;9.40;;;23.30;99.90;;;;;;5067832;28;20112;-80
2021/07/25 05:54:49;;;;;;;13.23;9.50;;;23.60;99.90;;;;;;5068229;28;20083;-80
2021/07/25 05:57:16;;;;;;;14.90;9.70;;;23.90;99.90;;;;;;5067350;28;20140;-80
2021/07/25 05:59:43;;;;;;;12.73;9.40;;;24.60;99.90;;;;;;5068006;28;20055;-81
2021/07/25 06:02:10;;;;;;;11.43;8.05;;;25.20;99.90;;;;;;5069900;28;20056;-80
2021/07/25 06:04:38;;;;;;;10.63;7.75;;;25.60;99.90;;;;;;5065731;28;20108;-80
2021/07/25 06:07:05;;;;;;;12.88;7.95;;;25.70;99.90;;;;;;5069420;28;20405;-80
2021/07/25 06:09:32;;;;;;;8.88;7.93;;;26.00;99.90;;;;;;5069225;28;20049;-80
2021/07/25 06:11:59;;;;;;;12.13;7.80;;;26.50;99.90;;;;;;5064480;28;20104;-79
2021/07/25 06:14:25;;;;;;;9.70;8.38;;;26.70;99.90;;;;;;5060094;28;20053;-78
2021/07/25 06:16:52;;;;;;;9.02;8.02;;;26.50;99.90;;;;;;5061091;28;20069;-79
2021/07/25 06:19:20;;;;;;;10.40;7.50;;;26.40;99.90;;;;;;5056420;28;20045;-78
2021/07/25 06:21:50;;;;;;;9.50;8.18;;;26.50;99.90;;;;;;5058194;28;20059;-81
2021/07/25 06:24:17;;;;;;;13.80;7.43;;;26.00;99.90;;;;;;5065589;28;20052;-81
2021/07/25 06:26:43;;;;;;;11.95;6.80;;;26.30;99.90;;;;;;5065370;28;20064;-81
2021/07/25 06:29:10;;;;;;;11.60;7.32;;;26.80;99.90;;;;;;5062241;28;20128;-79
2021/07/25 06:31:37;;;;;;;11.82;6.47;;;27.20;99.90;;;;;;5059035;28;20049;-79
2021/07/25 06:34:04;;;;;;;12.73;7.05;;;27.80;99.90;;;;;;5057782;28;20127;-79
2021/07/25 06:36:31;;;;;;;9.95;7.18;;;28.30;99.90;;;;;;5058126;28;20252;-79
2021/07/25 06:38:59;;;;;;;10.65;6.82;;;28.70;99.90;;;;;;5057540;28;20049;-79
2021/07/25 06:41:26;;;;;;;12.00;6.85;;;29.00;99.90;;;;;;5057661;28;20052;-80
2021/07/25 06:43:53;;;;;;;14.88;8.05;;;29.40;99.90;;;;;;5058517;28;20136;-79
2021/07/25 06:46:20;;;;;;;10.90;7.07;;;29.70;99.90;;;;;;5058638;28;20060;-78
2021/07/25 06:48:47;;;;;;;10.80;6.93;;;29.50;99.90;;;;;;5057128;28;20045;-79
2021/07/25 06:51:13;;;;;;;10.48;6.97;;;29.30;99.90;;;;;;5058277;28;20797;-80
2021/07/25 06:53:40;;;;;;;11.82;6.85;;;28.80;99.90;;;;;;5057890;28;20132;-79
2021/07/25 06:56:09;;;;;;;10.05;7.10;;;28.80;99.90;;;;;;5055275;28;20067;-79
2021/07/25 06:58:36;;;;;;;13.10;6.78;;;28.50;99.90;;;;;;5056344;28;20073;-79
2021/07/25 07:01:03;;;;;;;12.88;7.20;;;28.60;99.90;;;;;;5056924;28;20041;-80
2021/07/25 07:03:30;;;;;;;13.25;6.65;;;28.50;99.90;;;;;;5060246;28;20045;-80
2021/07/25 07:05:57;;;;;;;11.90;6.63;;;28.50;99.90;;;;;;5058525;28;20061;-80
2021/07/25 07:08:23;;;;;;;10.38;7.28;;;28.60;99.90;;;;;;5060197;28;20044;-81
2021/07/25 07:10:50;;;;;;;11.88;6.75;;;28.90;99.90;;;;;;5062739;28;20057;-81
2021/07/25 07:13:20;;;;;;;10.52;6.18;;;29.00;99.90;;;;;;5058374;28;20052;-82
2021/07/25 07:15:48;;;;;;;11.40;6.82;;;29.20;99.90;;;;;;5058088;28;20113;-86
2021/07/25 07:18:16;;;;;;;11.30;6.63;;;29.10;99.90;;;;;;5056899;28;20448;-80
2021/07/25 07:20:45;;;;;;;9.95;7.82;;;29.30;99.90;;;;;;5084356;22;20048;-79
2021/07/25 07:23:13;;;;;;;9.68;6.22;;;29.40;99.90;;;;;;5062852;28;20601;-77
2021/07/25 07:25:41;;;;;;;8.70;6.05;;;29.30;99.90;;;;;;5061572;28;20135;-79
2021/07/25 07:28:09;;;;;;;6.75;6.05;;;29.20;99.90;;;;;;5066479;28;20521;-79
2021/07/25 07:30:38;;;;;;;6.95;6.20;;;29.40;99.90;;;;;;5059000;28;20059;-79
2021/07/25 07:33:09;;;;;;;11.45;6.28;;;29.30;99.90;;;;;;5049041;28;20127;-78
2021/07/25 07:35:36;;;;;;;8.50;6.45;;;29.40;99.90;;;;;;5048968;28;20049;-80
2021/07/25 07:38:04;;;;;;;9.57;6.32;;;29.10;99.90;;;;;;5048909;28;20545;-78
2021/07/25 07:40:31;;;;;;;9.82;6.28;;;29.00;99.90;;;;;;5045653;28;20440;-79
2021/07/25 07:42:58;;;;;;;9.23;5.97;;;29.30;99.90;;;;;;5045909;28;20510;-78
2021/07/25 07:45:25;;;;;;;8.85;6.43;;;29.80;99.90;;;;;;5043813;28;20133;-80
2021/07/25 07:47:54;;;;;;;7.43;5.72;;;30.00;99.90;;;;;;5045244;28;20133;-79
2021/07/25 07:50:21;;;;;;;7.97;5.70;;;30.50;99.90;;;;;;5044003;28;20084;-79
2021/07/25 07:52:48;;;;;;;8.50;6.47;;;30.50;99.90;;;;;;5046016;28;20425;-78
2021/07/25 07:55:16;;;;;;;8.10;6.00;;;30.50;99.90;;;;;;5046255;28;20504;-79
2021/07/25 07:57:43;;;;;;;8.82;6.05;;;30.30;99.90;;;;;;5043849;28;20068;-79
2021/07/25 08:00:10;;;;;;;8.38;5.93;;;30.60;99.90;;;;;;5046866;28;20045;-81
2021/07/25 08:02:41;;;;;;;8.68;5.93;;;30.80;99.90;;;;;;5042929;28;20446;-81
2021/07/25 08:05:11;;;;;;;6.68;5.53;;;31.20;99.90;;;;;;5039684;28;20462;-81
2021/07/25 08:07:38;;;;;;;10.93;6.00;;;31.30;99.90;;;;;;5047655;28;20598;-81
2021/07/25 08:10:07;;;;;;;7.70;5.20;;;31.20;99.90;;;;;;5045877;28;20402;-77
2021/07/25 08:12:34;;;;;;;7.68;5.95;;;31.00;99.90;;;;;;5046154;28;20044;-79
2021/07/25 08:15:01;;;;;;;8.40;5.93;;;30.50;99.90;;;;;;5043700;28;20075;-79
2021/07/25 08:17:28;;;;;;;8.60;5.93;;;30.50;99.90;;;;;;5043318;28;20052;-79
2021/07/25 08:19:55;;;;;;;8.07;5.10;;;30.70;99.90;;;;;;5042631;28;20471;-80
2021/07/25 08:22:23;;;;;;;10.00;5.57;;;30.90;99.90;;;;;;5044548;28;20144;-80
2021/07/25 08:24:50;;;;;;;7.18;5.30;;;31.00;99.90;;;;;;5044213;28;20414;-79
2021/07/25 08:27:17;;;;;;;7.82;5.05;;;31.10;99.90;;;;;;5045382;28;20121;-80
2021/07/25 08:29:46;;;;;;;7.13;5.43;;;31.30;99.90;;;;;;5043652;28;20049;-79
2021/07/25 08:32:13;;;;;;;7.35;5.68;;;31.80;99.90;;;;;;5045685;28;20464;-79
2021/07/25 08:34:40;;;;;;;8.68;5.32;;;32.00;99.90;;;;;;5046193;28;20508;-78
2021/07/25 08:37:08;;;;;;;10.10;5.60;;;32.00;99.90;;;;;;5043265;28;20561;-78
2021/07/25 08:39:36;;;;;;;8.10;5.35;;;31.90;99.90;;;;;;5042678;28;20088;-79
2021/07/25 08:42:08;;;;;;;7.57;5.28;;;31.60;99.90;;;;;;5040681;28;20195;-79
2021/07/25 08:44:57;;;;;;;10.27;5.60;;;31.70;99.90;;;;;;5041511;28;20132;-79
2021/07/25 08:47:40;;;;;;;12.63;6.07;;;31.70;99.90;;;;;;5042315;28;20072;-79
2021/07/25 08:50:15;;;;;;;8.40;5.57;;;31.30;99.90;;;;;;5042193;28;20120;-78
2021/07/25 08:52:43;;;;;;;10.30;5.47;;;31.10;99.90;;;;;;5040815;28;20049;-79
2021/07/25 08:55:14;;;;;;;9.75;5.22;;;31.10;99.90;;;;;;5041469;28;20091;-80
2021/07/25 08:57:43;;;;;;;8.95;5.25;;;31.30;99.90;;;;;;5045444;28;20049;-80
2021/07/25 09:00:13;;;;;;;7.15;4.97;;;31.50;99.90;;;;;;5047301;28;20123;-82
2021/07/25 09:02:40;;;;;;;7.93;5.03;;;31.20;99.90;;;;;;5043123;28;20136;-80
2021/07/25 09:05:10;;;;;;;5.65;4.47;;;31.30;99.90;;;;;;5048437;28;20084;-82
2021/07/25 09:07:39;;;;;;;6.88;4.88;;;31.20;99.90;;;;;;5063496;28;20044;-79
2021/07/25 09:10:08;;;;;;;6.93;4.70;;;31.50;99.90;;;;;;5074072;28;20413;-79
2021/07/25 09:12:37;;;;;;;6.43;4.70;;;31.80;99.90;;;;;;5074831;28;20135;-82
2021/07/25 09:15:06;;;;;;;6.65;4.70;;;31.90;99.90;;;;;;5073995;28;20058;-81
2021/07/25 09:17:33;;;;;;;7.93;4.90;;;31.80;99.90;;;;;;5055076;28;20131;-79
2021/07/25 09:20:11;;;;;;;9.63;4.80;;;31.90;99.90;;;;;;5056262;28;20133;-81
2021/07/25 09:22:53;;;;;;;8.77;4.63;;;31.90;99.90;;;;;;5054748;28;20049;-79
2021/07/25 09:25:27;;;;;;;;;;;32.00;99.90;;;;;;5061400;28;20136;-79
2021/07/25 09:28:12;;;;;;;5.70;4.40;;;32.40;99.90;;;;;;5063283;28;19929;-77
2021/07/25 09:30:39;;;;;;;8.73;4.75;;;32.50;99.90;;;;;;5054172;28;20053;-80
2021/07/25 09:33:22;;;;;;;8.43;4.50;;;32.50;99.90;;;;;;5058088;28;20128;-79
2021/07/25 09:35:49;;;;;;;7.80;4.88;;;32.50;99.90;;;;;;5054699;28;20053;-79
2021/07/25 09:38:17;;;;;;;8.75;5.15;;;32.10;99.90;;;;;;5051946;28;20128;-79
2021/07/25 09:40:45;;;;;;;6.68;4.45;;;32.20;99.90;;;;;;5059007;28;20052;-79
2021/07/25 09:43:16;;;;;;;5.32;4.20;;;31.80;99.90;;;;;;5061167;28;20175;-79
2021/07/25 09:45:57;;;;;;;5.95;4.28;;;31.40;99.90;;;;;;5061788;28;20049;-80
2021/07/25 09:48:26;;;;;;;9.10;4.50;;;31.00;99.90;;;;;;5061254;28;20053;-79
2021/07/25 09:50:54;;;;;;;6.15;4.70;;;30.50;99.90;;;;;;5057512;28;20859;-78
2021/07/25 09:53:22;;;;;;;6.45;4.32;;;29.90;99.90;;;;;;5065608;28;20076;-79
2021/07/25 09:55:49;;;;;;;6.28;4.32;;;29.60;99.90;;;;;;5056083;28;20060;-80
2021/07/25 09:58:33;;;;;;;8.18;4.53;;;29.20;99.90;;;;;;5059227;28;20114;-81
2021/07/25 10:00:59;;;;;;;5.78;4.10;;;29.00;99.90;;;;;;5059922;28;20055;-80
2021/07/25 10:03:32;;;;;;;5.40;4.40;;;28.90;99.90;;;;;;5065373;28;20080;-79
2021/07/25 10:05:59;;;;;;;6.85;4.70;;;29.10;99.90;;;;;;5066044;28;20432;-80
2021/07/25 10:08:26;;;;;;;7.57;4.40;;;29.30;99.90;;;;;;5058445;28;20072;-79
2021/07/25 10:10:54;;;;;;;5.78;4.35;;;29.50;99.90;;;;;;5073297;28;20124;-80
2021/07/25 10:13:25;;;;;;;6.65;4.47;;;29.40;99.90;;;;;;5074733;28;20053;-79
2021/07/25 10:15:58;;;;;;;5.80;4.53;;;29.10;99.90;;;;;;5071471;28;20049;-79
2021/07/25 10:18:27;;;;;;;9.57;4.88;;;28.90;99.90;;;;;;5070783;28;20041;-79
2021/07/25 10:20:56;;;;;;;7.70;5.47;;;28.30;99.90;;;;;;5070079;28;20139;-79
2021/07/25 10:23:32;;;;;;;6.82;4.57;;;27.70;99.90;;;;;;5061137;28;20097;-80
2021/07/25 10:26:01;;;;;;;6.30;4.10;;;27.10;99.90;;;;;;5073460;28;20080;-80
2021/07/25 10:28:31;;;;;;;7.30;4.30;;;26.70;99.90;;;;;;5074029;28;20269;-81
2021/07/25 10:31:00;;;;;;;6.18;3.90;;;26.10;99.90;;;;;;5063577;28;20497;-80
2021/07/25 10:33:28;;;;;;;7.28;4.70;;;25.60;99.90;;;;;;5050440;28;20049;-79
2021/07/25 10:35:57;;;;;;;7.45;4.45;;;25.30;99.90;;;;;;5082770;28;20048;-80
2021/07/25 10:38:24;;;;;;;10.15;4.82;;;25.10;99.90;;;;;;5069443;28;20132;-80
2021/07/25 10:40:52;;;;;;;5.93;4.10;;;25.10;99.90;;;;;;5076378;28;20477;-81
2021/07/25 10:43:23;;;;;;;7.03;4.28;;;25.20;99.90;;;;;;5063060;28;20133;-80
2021/07/25 10:46:21;;;;;;;7.60;3.88;;;25.30;99.90;;;;;;5072232;28;20060;-79
2021/07/25 10:49:16;;;;;;;7.25;4.25;;;25.50;99.90;;;;;;5058473;28;20071;-80
2021/07/25 10:52:04;;;;;;;9.55;4.72;;;25.90;99.90;;;;;;5053034;28;20080;-82
2021/07/25 10:54:48;;;;;;;5.32;3.88;;;26.50;99.90;;;;;;5063163;28;20491;-82
2021/07/25 10:57:15;;;;;;;6.80;4.10;;;27.00;99.90;;;;;;5077129;28;20059;-82
2021/07/25 10:59:44;;;;;;;5.53;4.07;;;27.50;99.90;;;;;;5075309;28;20052;-81
2021/07/25 11:02:17;;;;;;;6.75;3.90;;;27.80;99.90;;;;;;5071440;28;20112;-81
2021/07/25 11:05:08;;;;;;;8.60;4.35;;;28.00;99.90;;;;;;5065560;28;20188;-82
2021/07/25 11:07:40;;;;;;;5.63;4.43;;;28.30;99.90;;;;;;5041210;28;20509;-82
2021/07/25 11:10:10;;;;;;;7.15;4.03;;;28.30;99.90;;;;;;5061433;28;20126;-82
2021/07/25 11:13:17;;;;;;;5.68;4.30;;;28.30;99.90;;;;;;5069642;28;20056;-81
2021/07/25 11:15:45;;;;;;;5.38;4.05;;;28.30;99.90;;;;;;5056833;28;20090;-81
2021/07/25 11:18:28;;;;;;;6.18;4.18;;;28.20;99.90;;;;;;5072701;28;20182;-80
2021/07/25 11:20:58;;;;;;;5.22;4.53;;;28.20;99.90;;;;;;5077836;28;20072;-80
2021/07/25 11:23:46;;;;;;;6.70;4.18;;;28.20;99.90;;;;;;5077573;28;20143;-81
2021/07/25 11:26:32;;;;;;;8.30;4.25;;;28.00;99.90;;;;;;5071490;28;20099;-80
2021/07/25 11:29:00;;;;;;;4.82;4.03;;;28.00;99.90;;;;;;5062181;28;20049;-80
2021/07/25 11:31:36;;;;;;;6.97;4.55;;;28.40;99.90;;;;;;5064455;28;20044;-82
2021/07/25 11:34:05;;;;;;;9.57;4.25;;;28.70;99.90;;;;;;5071605;28;20053;-82
2021/07/25 11:36:33;;;;;;;7.93;4.78;;;28.80;99.90;;;;;;5070431;28;20131;-80
2021/07/25 11:39:06;;;;;;;6.95;4.38;;;29.00;99.90;;;;;;5060066;28;20073;-80
2021/07/25 11:41:35;;;;;;;8.57;4.22;;;29.00;99.90;;;;;;5058757;28;20071;-82
2021/07/25 11:44:04;;;;;;;6.93;4.47;;;28.70;99.90;;;;;;5070481;28;20060;-81
2021/07/25 11:46:34;;;;;;;5.40;4.45;;;28.50;99.90;;;;;;5074014;28;20428;-81
2021/07/25 11:49:07;;;;;;;4.80;4.07;;;28.50;99.90;;;;;;5081286;28;20044;-82
2021/07/25 11:51:34;;;;;;;7.63;4.50;;;28.50;99.90;;;;;;5066604;28;20140;-81
2021/07/25 11:54:01;;;;;;;6.93;5.00;;;28.30;99.90;;;;;;5079642;28;20135;-80
2021/07/25 11:56:29;;;;;;;6.35;4.50;;;28.10;99.90;;;;;;5079960;28;20083;-79
2021/07/25 11:59:04;;;;;;;6.63;4.28;;;28.10;99.90;;;;;;5079915;28;20128;-82
2021/07/25 12:01:32;;;;;;;8.20;4.35;;;28.10;99.90;;;;;;5079984;28;20040;-80
2021/07/25 12:04:01;;;;;;;5.25;4.28;;;28.10;99.90;;;;;;5080112;28;20091;-82
2021/07/25 12:06:31;;;;;;;7.88;4.30;;;28.20;99.90;;;;;;5080234;28;20511;-81
2021/07/25 12:09:08;;;;;;;5.60;4.03;;;28.30;99.90;;;;;;5080721;28;20119;-83
2021/07/25 12:11:37;;;;;;;7.07;4.18;;;28.30;99.90;;;;;;5081743;28;20045;-80
2021/07/25 12:14:06;;;;;;;6.75;3.88;;;28.30;99.90;;;;;;5078770;28;20119;-79
2021/07/25 12:16:50;;;;;;;6.80;4.45;;;28.40;99.90;;;;;;5053750;28;20076;-81
2021/07/25 12:19:18;;;;;;;6.05;4.50;;;28.30;99.90;;;;;;5058490;28;20076;-80
2021/07/25 12:21:47;;;;;;;7.15;4.28;;;28.30;99.90;;;;;;5051985;28;20124;-82
2021/07/25 12:24:31;;;;;;;5.82;4.15;;;28.40;99.90;;;;;;5053129;28;20045;-81
2021/07/25 12:26:59;;;;;;;6.03;3.80;;;28.70;99.90;;;;;;5055931;28;20045;-81
2021/07/25 12:29:39;;;;;;;4.40;3.58;;;28.70;99.90;;;;;;5053128;28;20037;-83
2021/07/25 12:32:26;;;;;;;7.43;3.80;;;28.70;99.90;;;;;;5053972;28;20041;-82
2021/07/25 12:34:55;;;;;;;5.00;3.72;;;28.70;99.90;;;;;;5056654;28;20200;-82
2021/07/25 12:37:32;;;;;;;6.40;3.85;;;28.60;99.90;;;;;;5068089;28;20134;-82
2021/07/25 12:40:10;;;;;;;7.03;4.18;;;28.60;99.90;;;;;;5069987;28;20090;-83
2021/07/25 12:42:45;;;;;;;6.60;4.25;;;28.70;99.90;;;;;;5068788;28;20558;-82
2021/07/25 12:45:40;;;;;;;4.38;3.47;;;28.80;99.90;;;;;;5074793;28;20128;-82
2021/07/25 12:48:24;;;;;;;4.75;3.85;;;29.10;99.90;;;;;;5078668;28;20045;-79
2021/07/25 12:50:57;;;;;;;5.45;3.92;;;29.20;99.90;;;;;;5076895;28;20055;-81
2021/07/25 12:53:42;;;;;;;5.00;3.85;;;29.40;99.90;;;;;;5072122;28;20045;-81
2021/07/25 12:56:10;;;;;;;6.45;4.00;;;29.10;99.90;;;;;;5079541;28;20049;-81
2021/07/25 12:58:39;;;;;;;5.18;3.70;;;29.00;99.90;;;;;;5069262;28;20071;-80
2021/07/25 13:03:58;;;;;;;7.13;3.50;;;29.40;99.90;;;;;;5071832;28;20071;-81
2021/07/25 13:06:28;;;;;;;5.45;3.40;;;29.80;99.90;;;;;;5061397;28;20061;-81